Time;durP1;ratioP1;P1;durP2;ratioP2;P2;SDS_P1;SDS_P2;PMS_P1;PMS_P2;Temp;Humidity;BMP_temperature;BMP_pressure;BME280_temperature;BME280_humidity;BME280_pressure;Samples;Min_cycle;Max_cycle;Signal;HPM_P1;HPM_P2
2022/08/29 00:03:41;;;;;;;6.60;4.87;;;17.90;99.90;;;;;;4926306;29;20456;-74
2022/08/29 00:06:58;;;;;;;13.37;6.10;;;17.90;99.90;;;;;;4924419;29;20484;-74
2022/08/29 00:09:58;;;;;;;12.50;5.67;;;17.90;99.90;;;;;;4926854;29;20456;-75
2022/08/29 00:12:56;;;;;;;15.20;5.30;;;17.80;99.90;;;;;;4927644;29;20843;-74
2022/08/29 00:16:01;;;;;;;9.83;5.00;;;17.80;99.90;;;;;;4926072;29;20486;-74
2022/08/29 00:18:52;;;;;;;11.93;6.10;;;17.80;99.90;;;;;;4928163;29;20547;-74
2022/08/29 00:22:00;;;;;;;;;;;;;;;;;;;;;
2022/08/29 00:25:03;;;;;;;10.03;5.40;;;17.90;99.90;;;;;;4927933;28;20494;-74
2022/08/29 00:31:31;;;;;;;10.27;4.80;;;17.90;99.90;;;;;;4928952;29;20518;-74
2022/08/29 00:34:24;;;;;;;9.10;5.17;;;17.80;99.90;;;;;;4927692;29;20460;-73
2022/08/29 00:37:20;;;;;;;7.93;5.50;;;17.80;99.90;;;;;;4929820;29;20903;-73
2022/08/29 00:40:31;;;;;;;10.50;5.40;;;17.80;99.90;;;;;;4931574;29;20455;-73
2022/08/29 00:43:36;;;;;;;8.67;5.03;;;17.80;99.90;;;;;;4928857;29;20964;-74
2022/08/29 00:46:54;;;;;;;9.00;5.23;;;17.90;99.90;;;;;;4912733;29;20543;-74
2022/08/29 00:50:07;;;;;;;11.30;6.10;;;17.90;99.90;;;;;;4928881;28;20964;-74
2022/08/29 00:53:15;;;;;;;9.47;6.33;;;17.90;99.90;;;;;;4928108;28;20468;-74
2022/08/29 00:59:29;;;;;;;9.43;5.63;;;17.90;99.90;;;;;;4926826;29;20570;-74
2022/08/29 01:02:54;;;;;;;10.03;5.40;;;17.90;99.90;;;;;;4931487;28;20522;-74
2022/08/29 01:06:04;;;;;;;11.17;7.13;;;17.90;99.90;;;;;;4926472;29;20836;-74
2022/08/29 01:09:33;;;;;;;14.43;6.73;;;17.90;99.90;;;;;;4924940;29;21119;-74
2022/08/29 01:12:44;;;;;;;10.67;6.63;;;17.90;99.90;;;;;;4927696;29;20468;-74
2022/08/29 01:15:42;;;;;;;9.53;6.23;;;17.90;99.90;;;;;;4929391;29;20476;-74
2022/08/29 01:18:52;;;;;;;14.00;6.37;;;17.90;99.90;;;;;;4929041;29;20531;-74
2022/08/29 01:25:07;;;;;;;13.80;5.73;;;17.90;99.90;;;;;;4927910;29;20484;-74
2022/08/29 01:28:19;;;;;;;10.37;6.47;;;17.90;99.90;;;;;;4927358;28;20465;-74
2022/08/29 01:31:19;;;;;;;10.63;6.97;;;17.90;99.90;;;;;;4926093;29;20467;-74
2022/08/29 01:38:26;;;;;;;11.70;7.53;;;18.00;99.90;;;;;;4924841;29;20464;-74
2022/08/29 01:41:36;;;;;;;10.63;5.83;;;18.00;99.90;;;;;;4925210;29;20607;-74
2022/08/29 01:44:39;;;;;;;13.17;6.87;;;18.00;99.90;;;;;;4926456;29;20827;-74
2022/08/29 01:47:40;;;;;;;9.20;6.23;;;18.00;99.90;;;;;;4928027;29;20984;-74
2022/08/29 01:50:50;;;;;;;13.67;6.60;;;18.00;99.90;;;;;;4929607;29;20463;-74
2022/08/29 01:54:17;;;;;;;12.70;6.80;;;18.00;99.90;;;;;;4929816;28;20448;-74
2022/08/29 01:57:23;;;;;;;10.73;6.73;;;18.00;99.90;;;;;;4928579;28;20530;-74
2022/08/29 02:04:04;;;;;;;12.97;7.07;;;17.90;99.90;;;;;;4933607;28;20448;-74
2022/08/29 02:10:18;;;;;;;13.37;6.60;;;18.00;99.90;;;;;;4933019;29;20489;-74
2022/08/29 02:13:36;;;;;;;12.77;6.80;;;18.00;99.90;;;;;;4928964;29;20988;-74
2022/08/29 02:16:44;;;;;;;12.03;6.67;;;18.00;99.90;;;;;;4932354;29;20487;-74
2022/08/29 02:19:39;;;;;;;9.60;6.33;;;18.00;99.90;;;;;;4929060;29;20463;-74
2022/08/29 02:22:55;;;;;;;10.67;6.60;;;18.00;99.90;;;;;;4928561;29;20489;-74
2022/08/29 02:25:53;;;;;;;14.97;6.70;;;18.00;99.90;;;;;;4938294;29;20484;-73
2022/08/29 02:32:29;;;;;;;11.00;7.07;;;17.90;99.90;;;;;;4933888;29;20553;-74
2022/08/29 02:38:57;;;;;;;11.20;6.43;;;18.00;99.90;;;;;;4940314;29;20480;-74
2022/08/29 02:41:57;;;;;;;9.10;6.00;;;18.00;99.90;;;;;;4937418;29;20460;-74
2022/08/29 02:45:17;;;;;;;13.00;7.43;;;18.00;99.90;;;;;;4942150;29;20478;-74
2022/08/29 02:48:16;;;;;;;13.20;7.90;;;17.90;99.90;;;;;;4940027;29;20519;-74
2022/08/29 02:51:40;;;;;;;9.57;6.60;;;18.00;99.90;;;;;;4934460;28;20463;-74
2022/08/29 02:54:44;;;;;;;11.67;6.70;;;17.90;99.90;;;;;;4932648;29;20511;-74
2022/08/29 02:57:46;;;;;;;10.20;6.70;;;18.00;99.90;;;;;;4930622;29;20547;-74
2022/08/29 03:00:47;;;;;;;11.23;6.67;;;18.00;99.90;;;;;;4932041;29;20463;-74
2022/08/29 03:03:49;;;;;;;13.00;6.30;;;18.00;99.90;;;;;;4932135;28;20456;-74
2022/08/29 03:10:40;;;;;;;10.10;6.50;;;18.00;99.90;;;;;;4929248;29;20459;-74
2022/08/29 03:13:39;;;;;;;10.90;6.73;;;18.00;99.90;;;;;;4929789;29;21167;-74
2022/08/29 03:16:45;;;;;;;9.40;6.67;;;17.90;99.90;;;;;;4932720;29;20479;-74
2022/08/29 03:22:56;;;;;;;7.27;6.07;;;17.80;99.90;;;;;;4930934;29;20555;-74
2022/08/29 03:26:15;;;;;;;12.37;7.17;;;17.80;99.90;;;;;;4929884;29;20575;-74
2022/08/29 03:29:25;;;;;;;9.33;6.13;;;17.70;99.90;;;;;;4928159;29;20502;-74
2022/08/29 03:32:34;;;;;;;11.93;6.30;;;17.70;99.90;;;;;;4931545;29;20444;-74
2022/08/29 03:35:34;;;;;;;9.70;6.80;;;17.70;99.90;;;;;;4930937;29;20563;-74
2022/08/29 03:38:57;;;;;;;11.17;6.97;;;17.60;99.90;;;;;;4924622;29;20595;-74
2022/08/29 03:42:07;;;;;;;11.50;6.13;;;17.60;99.90;;;;;;4929591;29;20553;-74
2022/08/29 03:45:13;;;;;;;9.57;6.53;;;17.60;99.90;;;;;;4930948;29;20459;-75
2022/08/29 03:48:14;;;;;;;7.70;6.03;;;17.60;99.90;;;;;;4932108;28;20570;-74
2022/08/29 03:51:32;;;;;;;8.70;6.63;;;17.50;99.90;;;;;;4930697;29;20506;-74
2022/08/29 03:54:54;;;;;;;8.07;6.40;;;17.40;99.90;;;;;;4927380;29;20919;-74
2022/08/29 03:58:16;;;;;;;8.93;6.13;;;17.40;99.90;;;;;;4930336;29;20468;-74
2022/08/29 04:01:17;;;;;;;8.60;6.80;;;17.40;99.90;;;;;;4931269;29;20519;-74
2022/08/29 04:08:09;;;;;;;8.67;7.47;;;17.40;99.90;;;;;;4927261;29;20524;-74
2022/08/29 04:11:27;;;;;;;9.70;7.70;;;17.50;99.90;;;;;;4925442;29;20467;-74
2022/08/29 04:14:28;;;;;;;11.83;8.37;;;17.50;99.90;;;;;;4931180;29;20507;-74
2022/08/29 04:20:54;;;;;;;11.33;8.40;;;17.50;99.90;;;;;;4926138;29;21704;-74
2022/08/29 04:24:06;;;;;;;10.73;9.13;;;17.40;99.90;;;;;;4927174;29;20987;-74
2022/08/29 04:27:10;;;;;;;12.03;9.63;;;17.50;99.90;;;;;;4926204;29;20486;-74
2022/08/29 04:33:37;;;;;;;;;;;;;;;;;;;;;
2022/08/29 04:37:03;;;;;;;12.10;10.70;;;17.50;99.90;;;;;;4923928;29;20480;-74
2022/08/29 04:40:21;;;;;;;15.27;11.07;;;17.40;99.90;;;;;;4921782;29;20555;-72
2022/08/29 04:43:26;;;;;;;12.30;11.10;;;17.40;99.90;;;;;;4926470;29;20462;-72
2022/08/29 04:49:43;;;;;;;11.50;10.20;;;17.40;99.90;;;;;;4922782;29;20466;-72
2022/08/29 04:52:59;;;;;;;12.13;11.00;;;17.40;99.90;;;;;;4925149;28;20464;-72
2022/08/29 04:56:06;;;;;;;11.13;10.03;;;17.50;99.90;;;;;;4923566;29;20487;-73
2022/08/29 04:59:05;;;;;;;10.10;9.20;;;17.50;99.90;;;;;;4925345;29;20468;-73
2022/08/29 05:02:10;;;;;;;9.00;8.20;;;17.40;99.90;;;;;;4931338;29;20471;-73
2022/08/29 05:05:12;;;;;;;8.83;8.13;;;17.50;99.90;;;;;;4923065;29;20828;-73
2022/08/29 05:08:19;;;;;;;10.27;8.87;;;17.50;99.90;;;;;;4921850;29;20463;-72
2022/08/29 05:11:38;;;;;;;7.80;7.17;;;17.50;99.90;;;;;;4923566;29;20464;-73
2022/08/29 05:14:58;;;;;;;7.07;6.37;;;17.50;99.90;;;;;;4929370;29;20460;-73
2022/08/29 05:17:46;;;;;;;6.97;6.33;;;17.40;99.90;;;;;;4925224;29;20460;-73
2022/08/29 05:20:35;;;;;;;7.47;6.73;;;17.50;99.90;;;;;;4924182;29;21129;-73
2022/08/29 05:23:30;;;;;;;6.60;6.00;;;17.50;99.90;;;;;;4925631;29;20567;-72
2022/08/29 05:26:22;;;;;;;7.27;6.50;;;17.50;99.90;;;;;;4907877;29;21086;-74
2022/08/29 05:29:12;;;;;;;6.47;5.90;;;17.50;99.90;;;;;;4910261;29;20511;-74
2022/08/29 05:32:02;;;;;;;6.93;6.17;;;17.50;99.90;;;;;;4908299;29;20554;-74
2022/08/29 05:34:56;;;;;;;6.67;6.00;;;17.60;99.90;;;;;;4916520;29;20468;-74
2022/08/29 05:37:53;;;;;;;6.27;5.67;;;17.60;99.90;;;;;;4925475;29;20544;-74
2022/08/29 05:40:47;;;;;;;6.13;5.63;;;17.50;99.90;;;;;;4915661;29;20455;-74
2022/08/29 05:43:41;;;;;;;5.77;5.37;;;17.50;99.90;;;;;;4919815;29;20467;-74
2022/08/29 05:46:32;;;;;;;4.70;4.40;;;17.50;99.90;;;;;;4921108;29;20494;-74
2022/08/29 05:49:26;;;;;;;4.70;4.40;;;17.50;99.90;;;;;;4916718;29;20456;-74
2022/08/29 05:52:17;;;;;;;4.80;4.40;;;17.50;99.90;;;;;;4917812;29;20464;-74
2022/08/29 05:55:06;;;;;;;5.90;5.30;;;17.50;99.90;;;;;;4921094;29;20554;-74
2022/08/29 05:57:57;;;;;;;6.30;5.80;;;17.50;99.90;;;;;;4920141;28;20548;-73
2022/08/29 06:00:50;;;;;;;5.57;5.13;;;17.50;99.90;;;;;;4924693;29;20931;-73
2022/08/29 06:03:38;;;;;;;4.70;4.40;;;17.50;99.90;;;;;;4914716;29;20463;-73
2022/08/29 06:06:33;;;;;;;5.27;4.87;;;17.50;99.90;;;;;;4909413;29;20741;-73
2022/08/29 06:09:21;;;;;;;5.63;5.13;;;17.50;99.90;;;;;;4923416;29;20456;-72
2022/08/29 06:12:10;;;;;;;5.00;4.60;;;17.60;99.90;;;;;;4923515;29;20547;-72
2022/08/29 06:15:00;;;;;;;5.70;5.20;;;17.60;99.90;;;;;;4924080;29;20452;-73
2022/08/29 06:17:51;;;;;;;4.80;4.50;;;17.60;99.90;;;;;;4927714;29;20550;-72
2022/08/29 06:20:40;;;;;;;5.30;4.80;;;17.60;99.90;;;;;;4926829;29;20543;-72
2022/08/29 06:23:28;;;;;;;5.03;4.63;;;17.70;99.90;;;;;;4928824;29;20588;-72
2022/08/29 06:26:18;;;;;;;4.83;4.43;;;17.70;99.90;;;;;;4925978;29;21048;-72
2022/08/29 06:29:10;;;;;;;4.90;4.50;;;17.70;99.90;;;;;;4927680;29;20587;-72
2022/08/29 06:32:00;;;;;;;5.10;3.90;;;17.70;99.90;;;;;;4929364;29;20668;-72
2022/08/29 06:34:48;;;;;;;4.87;4.47;;;17.80;99.90;;;;;;4923200;28;20574;-71
2022/08/29 06:37:36;;;;;;;4.20;3.90;;;17.90;99.90;;;;;;4924678;29;21031;-71
2022/08/29 06:40:25;;;;;;;4.43;3.93;;;17.90;99.90;;;;;;4922473;29;20494;-71
2022/08/29 06:43:14;;;;;;;4.67;4.17;;;17.90;99.90;;;;;;4921294;29;20460;-72
2022/08/29 06:46:02;;;;;;;4.37;3.97;;;17.90;99.90;;;;;;4920596;29;20511;-72
2022/08/29 06:48:53;;;;;;;4.30;3.90;;;17.90;99.90;;;;;;4922695;29;20886;-72
2022/08/29 06:51:43;;;;;;;3.87;3.60;;;17.80;99.90;;;;;;4920053;29;20464;-72
2022/08/29 06:54:31;;;;;;;3.37;3.07;;;17.80;99.90;;;;;;4918571;29;20982;-72
2022/08/29 06:57:19;;;;;;;5.53;3.47;;;17.90;99.90;;;;;;4910629;28;20508;-73
2022/08/29 07:00:12;;;;;;;3.20;3.00;;;18.00;99.90;;;;;;4907746;29;20456;-71
2022/08/29 07:03:10;;;;;;;3.37;3.07;;;18.10;99.90;;;;;;4914531;29;20483;-72
2022/08/29 07:06:01;;;;;;;3.27;3.07;;;18.20;99.90;;;;;;4922002;29;20483;-71
2022/08/29 07:08:50;;;;;;;2.97;2.77;;;18.20;99.90;;;;;;4909287;29;20487;-72
2022/08/29 07:11:43;;;;;;;3.03;2.70;;;18.30;99.90;;;;;;4911405;29;20706;-72
2022/08/29 07:14:32;;;;;;;2.80;2.53;;;18.30;99.90;;;;;;4912525;29;20515;-72
2022/08/29 07:17:20;;;;;;;2.83;2.63;;;18.30;99.90;;;;;;4916371;29;20970;-72
2022/08/29 07:20:13;;;;;;;3.23;2.93;;;18.30;99.90;;;;;;4919928;29;20846;-72
2022/08/29 07:23:03;;;;;;;3.00;2.73;;;18.30;99.90;;;;;;4912644;29;20491;-72
2022/08/29 07:25:51;;;;;;;2.90;2.70;;;18.30;99.90;;;;;;4915946;29;20564;-72
2022/08/29 07:28:40;;;;;;;3.00;2.80;;;18.40;99.90;;;;;;4916568;29;20488;-72
2022/08/29 07:31:34;;;;;;;3.60;3.40;;;18.40;99.90;;;;;;4913452;29;20470;-72
2022/08/29 07:34:22;;;;;;;3.37;3.10;;;18.40;99.90;;;;;;4917500;29;20976;-72
2022/08/29 07:37:11;;;;;;;2.40;2.27;;;18.40;99.90;;;;;;4910606;29;20487;-72
2022/08/29 07:40:03;;;;;;;2.83;2.63;;;18.50;99.90;;;;;;4919342;29;20467;-72
2022/08/29 07:42:52;;;;;;;2.70;2.50;;;18.50;99.90;;;;;;4921284;28;20460;-72
2022/08/29 07:45:40;;;;;;;3.00;2.80;;;18.60;99.90;;;;;;4920260;28;20627;-72
2022/08/29 07:48:28;;;;;;;2.87;2.67;;;18.60;99.90;;;;;;4915132;29;20483;-72
2022/08/29 07:51:21;;;;;;;3.47;2.93;;;18.60;99.90;;;;;;4918477;29;20507;-72
2022/08/29 07:54:15;;;;;;;2.73;2.53;;;18.70;99.90;;;;;;4917732;29;20499;-72
2022/08/29 07:57:07;;;;;;;3.67;2.70;;;18.70;99.90;;;;;;4924383;29;20500;-74
2022/08/29 07:59:55;;;;;;;2.53;2.40;;;18.80;99.90;;;;;;4917494;29;20469;-74
2022/08/29 08:02:44;;;;;;;2.90;2.70;;;18.80;99.90;;;;;;4915818;29;20499;-72
2022/08/29 08:05:32;;;;;;;4.30;2.90;;;18.90;99.90;;;;;;4908788;29;20485;-72
2022/08/29 08:08:20;;;;;;;2.30;2.17;;;18.90;99.90;;;;;;4915591;29;21090;-72
2022/08/29 08:11:09;;;;;;;2.10;2.00;;;19.00;99.90;;;;;;4920080;29;20563;-72
2022/08/29 08:13:59;;;;;;;2.53;2.10;;;19.00;99.90;;;;;;4920057;29;20599;-72
2022/08/29 08:16:47;;;;;;;2.90;2.70;;;19.10;99.90;;;;;;4915596;29;20554;-72
2022/08/29 08:19:37;;;;;;;2.60;2.40;;;19.10;99.90;;;;;;4910937;29;20456;-73
2022/08/29 08:22:25;;;;;;;3.40;2.50;;;19.20;99.90;;;;;;4912191;28;20496;-73
2022/08/29 08:25:13;;;;;;;5.40;2.70;;;19.20;99.90;;;;;;4918048;28;20471;-72
2022/08/29 08:28:02;;;;;;;2.50;2.30;;;19.30;99.90;;;;;;4921370;28;20483;-72
2022/08/29 08:30:53;;;;;;;2.77;2.57;;;19.30;99.90;;;;;;4917918;29;20647;-72
2022/08/29 08:33:44;;;;;;;4.90;2.90;;;19.40;99.90;;;;;;4917468;28;20460;-72
2022/08/29 08:36:36;;;;;;;2.83;2.63;;;19.40;99.90;;;;;;4913097;29;20511;-72
2022/08/29 08:39:28;;;;;;;2.60;2.40;;;19.50;99.90;;;;;;4918663;29;21035;-73
2022/08/29 08:42:27;;;;;;;2.27;2.17;;;19.50;99.90;;;;;;4912537;29;20822;-72
2022/08/29 08:45:21;;;;;;;2.00;1.90;;;19.60;99.90;;;;;;4918474;29;20978;-72
2022/08/29 08:48:18;;;;;;;2.80;2.43;;;19.60;99.90;;;;;;4918079;29;20880;-72
2022/08/29 08:51:10;;;;;;;2.40;2.20;;;19.60;99.90;;;;;;4919279;29;20506;-72
2022/08/29 08:54:02;;;;;;;2.70;2.50;;;19.70;99.90;;;;;;4916974;29;20487;-72
2022/08/29 08:56:55;;;;;;;3.00;2.17;;;19.80;99.90;;;;;;4922202;28;20476;-72
2022/08/29 08:59:54;;;;;;;2.00;1.90;;;19.90;99.90;;;;;;4919566;28;20452;-72
2022/08/29 09:02:53;;;;;;;2.70;2.37;;;19.90;99.90;;;;;;4916994;29;20467;-73
2022/08/29 09:06:01;;;;;;;4.03;2.50;;;19.90;99.90;;;;;;4913019;29;20476;-72
2022/08/29 09:08:58;;;;;;;4.27;2.60;;;20.00;99.90;;;;;;4917898;29;20471;-72
2022/08/29 09:12:01;;;;;;;2.63;2.40;;;20.10;99.90;;;;;;4922712;29;20452;-72
2022/08/29 09:14:59;;;;;;;1.83;1.70;;;20.20;99.90;;;;;;4925216;29;20484;-72
2022/08/29 09:17:52;;;;;;;2.70;2.50;;;20.20;99.90;;;;;;4923401;29;20457;-72
2022/08/29 09:20:44;;;;;;;2.10;2.00;;;20.20;99.90;;;;;;4921971;29;20456;-73
2022/08/29 09:23:41;;;;;;;2.63;2.53;;;20.20;99.90;;;;;;4922226;28;20530;-74
2022/08/29 09:26:34;;;;;;;2.10;2.00;;;20.30;99.90;;;;;;4912169;29;20590;-73
2022/08/29 09:29:24;;;;;;;2.80;2.20;;;20.20;99.90;;;;;;4924056;29;20623;-73
2022/08/29 09:32:14;;;;;;;4.30;2.10;;;20.30;99.90;;;;;;4925776;29;20455;-73
2022/08/29 09:35:19;;;;;;;2.13;2.03;;;20.30;99.90;;;;;;4920954;29;20467;-73
2022/08/29 09:38:09;;;;;;;1.90;1.80;;;20.30;99.90;;;;;;4920575;29;20448;-73
2022/08/29 09:41:02;;;;;;;1.90;1.80;;;20.30;99.90;;;;;;4918798;28;20467;-73
2022/08/29 09:43:54;;;;;;;1.93;1.60;;;20.30;99.90;;;;;;4918753;29;20602;-73
2022/08/29 09:46:44;;;;;;;2.60;1.80;;;20.30;99.90;;;;;;4920722;29;20491;-73
2022/08/29 09:49:33;;;;;;;1.40;1.40;;;20.40;99.90;;;;;;4910878;29;20590;-73
2022/08/29 09:52:24;;;;;;;2.10;1.90;;;20.30;99.90;;;;;;4912790;29;20456;-73
2022/08/29 09:55:20;;;;;;;4.50;2.10;;;20.40;99.90;;;;;;4919929;29;20467;-72
2022/08/29 09:58:29;;;;;;;3.07;1.60;;;20.50;99.90;;;;;;4919203;29;20499;-72
2022/08/29 10:01:20;;;;;;;1.30;1.20;;;20.50;99.90;;;;;;4915340;29;20542;-72
2022/08/29 10:04:37;;;;;;;1.40;1.40;;;20.50;99.90;;;;;;4913059;28;21060;-73
2022/08/29 10:07:32;;;;;;;1.40;1.30;;;20.50;99.90;;;;;;4918969;29;20452;-72
2022/08/29 10:10:27;;;;;;;1.50;1.30;;;20.50;99.90;;;;;;4917979;29;20460;-73
2022/08/29 10:13:23;;;;;;;1.60;1.47;;;20.60;99.90;;;;;;4919878;29;20452;-72
2022/08/29 10:16:25;;;;;;;1.57;1.47;;;20.60;99.90;;;;;;4917394;28;24188;-72
2022/08/29 10:19:17;;;;;;;1.83;1.73;;;20.70;99.90;;;;;;4903492;29;20459;-73
2022/08/29 10:22:27;;;;;;;1.30;1.20;;;20.70;99.90;;;;;;4917658;29;20496;-72
2022/08/29 10:25:21;;;;;;;1.20;1.13;;;20.70;99.90;;;;;;4915818;28;20563;-72
2022/08/29 10:28:19;;;;;;;1.40;1.30;;;20.80;99.90;;;;;;4908018;29;20519;-74
2022/08/29 10:31:13;;;;;;;1.30;1.20;;;20.90;99.90;;;;;;4919882;29;20999;-74
2022/08/29 10:34:14;;;;;;;1.67;1.20;;;21.00;99.90;;;;;;4916101;29;20456;-75
2022/08/29 10:37:11;;;;;;;1.30;1.20;;;21.10;99.90;;;;;;4917062;28;20487;-72
2022/08/29 10:40:06;;;;;;;2.40;1.07;;;21.10;99.90;;;;;;4921048;29;20844;-72
2022/08/29 10:43:23;;;;;;;1.33;1.07;;;21.10;99.90;;;;;;4918934;28;20496;-72
2022/08/29 10:46:33;;;;;;;1.20;1.20;;;21.10;99.90;;;;;;4916486;29;20472;-72
2022/08/29 10:49:32;;;;;;;1.00;1.00;;;21.20;99.90;;;;;;4921070;29;20492;-72
2022/08/29 10:52:33;;;;;;;1.30;1.30;;;21.20;99.90;;;;;;4914057;28;20499;-73
2022/08/29 10:55:35;;;;;;;1.20;1.10;;;21.20;99.90;;;;;;4922158;29;20482;-72
2022/08/29 10:58:38;;;;;;;1.23;1.20;;;21.20;99.90;;;;;;4918335;28;20471;-74
2022/08/29 11:01:32;;;;;;;1.10;1.10;;;21.20;99.90;;;;;;4919253;29;20448;-72
2022/08/29 11:04:26;;;;;;;1.10;1.00;;;21.20;99.90;;;;;;4915637;29;21197;-72
2022/08/29 11:07:19;;;;;;;1.20;1.10;;;21.20;99.90;;;;;;4915958;29;20480;-73
2022/08/29 11:10:16;;;;;;;1.50;1.30;;;21.20;99.90;;;;;;4918912;29;21117;-74
2022/08/29 11:13:12;;;;;;;1.07;1.07;;;21.20;99.90;;;;;;4920722;29;20451;-74
2022/08/29 11:16:09;;;;;;;1.33;1.30;;;21.10;99.90;;;;;;4920167;29;20550;-73
2022/08/29 11:19:14;;;;;;;1.83;1.40;;;21.10;99.90;;;;;;4916760;29;20452;-73
2022/08/29 11:22:14;;;;;;;1.20;1.20;;;21.20;99.90;;;;;;4919113;28;20471;-74
2022/08/29 11:25:08;;;;;;;1.53;1.30;;;21.20;99.90;;;;;;4914582;29;20452;-74
2022/08/29 11:28:04;;;;;;;1.20;1.10;;;21.20;99.90;;;;;;4914885;29;20964;-73
2022/08/29 11:31:01;;;;;;;2.40;1.40;;;21.30;99.90;;;;;;4914056;29;20503;-75
2022/08/29 11:33:57;;;;;;;1.70;1.60;;;21.30;99.90;;;;;;4911517;29;20452;-75
2022/08/29 11:36:59;;;;;;;1.70;1.60;;;21.30;99.90;;;;;;4918603;29;20472;-75
2022/08/29 11:39:55;;;;;;;2.10;1.90;;;21.30;99.90;;;;;;4921976;28;20554;-75
2022/08/29 11:42:46;;;;;;;2.00;1.80;;;21.30;99.90;;;;;;4911835;28;20464;-75
2022/08/29 11:45:42;;;;;;;1.50;1.40;;;21.30;99.90;;;;;;4918548;29;20488;-75
2022/08/29 11:48:34;;;;;;;2.13;1.30;;;21.30;99.90;;;;;;4911055;29;20487;-75
2022/08/29 11:51:36;;;;;;;2.03;1.53;;;21.30;99.90;;;;;;4915229;28;20463;-75
2022/08/29 11:55:16;;;;;;;2.03;1.43;;;21.30;99.90;;;;;;4913190;29;20448;-76
2022/08/29 11:58:26;;;;;;;3.13;1.53;;;21.30;99.90;;;;;;4917042;29;20464;-76
2022/08/29 12:01:48;;;;;;;2.43;1.30;;;21.40;99.90;;;;;;4918954;29;21272;-75
2022/08/29 12:04:55;;;;;;;3.07;1.40;;;21.30;99.90;;;;;;4912289;29;20459;-74
2022/08/29 12:07:47;;;;;;;2.03;1.57;;;21.40;99.90;;;;;;4918708;29;20487;-74
2022/08/29 12:10:55;;;;;;;1.60;1.50;;;21.60;99.90;;;;;;4915966;29;20515;-74
2022/08/29 12:14:02;;;;;;;3.03;1.60;;;21.60;99.90;;;;;;4913303;29;20576;-73
2022/08/29 12:16:52;;;;;;;3.17;1.70;;;21.60;99.90;;;;;;4916227;29;21094;-75
2022/08/29 12:19:49;;;;;;;1.70;1.57;;;21.70;99.90;;;;;;4909342;29;20461;-74
2022/08/29 12:23:00;;;;;;;2.73;1.70;;;21.60;99.90;;;;;;4908335;28;20872;-74
2022/08/29 12:25:50;;;;;;;2.40;1.43;;;21.60;99.90;;;;;;4914005;28;20504;-74
2022/08/29 12:29:00;;;;;;;1.83;1.70;;;21.60;99.90;;;;;;4916812;29;20662;-73
2022/08/29 12:32:24;;;;;;;2.40;1.70;;;21.50;99.90;;;;;;4909239;28;20518;-74
2022/08/29 12:35:49;;;;;;;1.60;1.50;;;21.50;99.90;;;;;;4911254;29;20486;-73
2022/08/29 12:38:51;;;;;;;2.40;1.70;;;21.40;99.90;;;;;;4900199;29;20471;-74
2022/08/29 12:41:59;;;;;;;1.67;1.57;;;21.30;99.90;;;;;;4916532;28;20586;-75
2022/08/29 12:44:58;;;;;;;1.80;1.70;;;21.30;99.90;;;;;;4915409;29;20460;-74
2022/08/29 12:47:51;;;;;;;1.90;1.60;;;21.30;99.90;;;;;;4905928;29;20937;-74
2022/08/29 12:50:43;;;;;;;1.80;1.70;;;21.30;99.90;;;;;;4914232;29;20489;-75
2022/08/29 12:53:34;;;;;;;1.47;1.30;;;21.30;99.90;;;;;;4914463;29;20498;-74
2022/08/29 12:56:24;;;;;;;1.83;1.53;;;21.30;99.90;;;;;;4913904;29;20480;-75
2022/08/29 12:59:18;;;;;;;2.60;1.60;;;21.20;99.90;;;;;;4914958;29;20475;-75
2022/08/29 13:02:07;;;;;;;1.53;1.23;;;21.20;99.90;;;;;;4917928;29;20939;-75
2022/08/29 13:04:58;;;;;;;1.43;1.33;;;21.10;99.90;;;;;;4905212;29;20460;-74
2022/08/29 13:07:54;;;;;;;2.90;1.60;;;21.10;99.90;;;;;;4915493;29;20559;-75
2022/08/29 13:10:54;;;;;;;1.77;1.30;;;21.10;99.90;;;;;;4903439;29;20860;-75
2022/08/29 13:13:43;;;;;;;2.17;1.70;;;21.10;99.90;;;;;;4905833;28;20543;-74
2022/08/29 13:16:32;;;;;;;2.80;1.83;;;21.10;99.90;;;;;;4906181;29;20484;-74
2022/08/29 13:19:23;;;;;;;1.70;1.60;;;21.00;99.90;;;;;;4915533;29;20471;-73
2022/08/29 13:22:16;;;;;;;1.40;1.30;;;21.00;99.90;;;;;;4912740;29;21051;-75
2022/08/29 13:25:06;;;;;;;1.63;1.53;;;21.10;99.90;;;;;;4899516;28;20568;-76
2022/08/29 13:27:57;;;;;;;2.27;1.60;;;21.10;99.90;;;;;;4907182;29;20989;-73
2022/08/29 13:31:25;;;;;;;2.30;1.53;;;21.10;99.90;;;;;;4912505;29;20496;-73
2022/08/29 13:34:22;;;;;;;1.63;1.53;;;21.10;99.90;;;;;;4880661;29;20457;-74
2022/08/29 13:37:29;;;;;;;2.10;1.50;;;21.20;99.90;;;;;;4908685;28;20928;-74
2022/08/29 13:40:36;;;;;;;1.80;1.40;;;21.30;99.90;;;;;;4909873;28;20460;-73
2022/08/29 13:43:37;;;;;;;1.97;1.50;;;21.40;99.90;;;;;;4901908;29;20459;-73
2022/08/29 13:46:29;;;;;;;2.50;1.90;;;21.50;99.90;;;;;;4910322;28;20558;-74
2022/08/29 13:49:19;;;;;;;1.40;1.30;;;21.60;99.90;;;;;;4915247;29;20463;-74
2022/08/29 13:52:09;;;;;;;1.43;1.33;;;21.80;99.90;;;;;;4908112;29;21229;-75
2022/08/29 13:54:57;;;;;;;1.30;1.20;;;21.90;99.90;;;;;;4914682;29;20452;-75
2022/08/29 13:57:52;;;;;;;2.30;1.40;;;21.90;99.90;;;;;;4915453;29;21126;-74
2022/08/29 14:00:41;;;;;;;1.80;1.30;;;22.00;99.90;;;;;;4916756;29;20460;-74
2022/08/29 14:03:32;;;;;;;4.43;1.90;;;22.10;99.90;;;;;;4916288;29;20478;-74
2022/08/29 14:06:23;;;;;;;1.10;1.00;;;22.40;99.90;;;;;;4908815;29;20488;-74
2022/08/29 14:09:19;;;;;;;3.47;1.30;;;22.70;99.90;;;;;;4918759;29;21001;-74
2022/08/29 14:12:11;;;;;;;1.47;1.00;;;22.80;99.90;;;;;;4923067;29;20494;-74
2022/08/29 14:14:59;;;;;;;2.10;1.30;;;22.80;99.90;;;;;;4919222;29;20507;-74
2022/08/29 14:17:53;;;;;;;1.87;1.30;;;22.70;99.90;;;;;;4914176;29;20972;-75
2022/08/29 14:20:43;;;;;;;1.80;0.93;;;22.70;99.90;;;;;;4910229;29;20475;-75
2022/08/29 14:23:31;;;;;;;1.03;0.90;;;22.70;99.90;;;;;;4916916;29;20551;-75
2022/08/29 14:26:20;;;;;;;1.30;0.93;;;22.80;99.90;;;;;;4915828;29;20479;-74
2022/08/29 14:29:09;;;;;;;0.90;0.90;;;23.00;99.90;;;;;;4927505;29;20555;-74
2022/08/29 14:31:58;;;;;;;1.67;1.10;;;23.10;99.90;;;;;;4919465;29;20483;-75
2022/08/29 14:34:50;;;;;;;1.20;0.80;;;23.20;99.90;;;;;;4928794;29;20539;-74
2022/08/29 14:37:42;;;;;;;2.00;1.20;;;23.10;99.90;;;;;;4928386;29;20464;-75
2022/08/29 14:40:31;;;;;;;1.73;0.93;;;22.90;99.90;;;;;;4912812;29;20543;-74
2022/08/29 14:43:19;;;;;;;2.03;1.03;;;22.90;99.90;;;;;;4925321;29;20468;-74
2022/08/29 14:46:08;;;;;;;2.33;1.20;;;22.70;99.90;;;;;;4924380;29;20508;-75
2022/08/29 14:48:56;;;;;;;1.90;1.20;;;22.60;99.90;;;;;;4918722;29;21470;-75
2022/08/29 14:51:44;;;;;;;1.30;1.03;;;22.60;99.90;;;;;;4919526;29;20487;-74
2022/08/29 14:54:34;;;;;;;1.00;0.90;;;22.50;99.90;;;;;;4920162;29;21015;-74
2022/08/29 14:57:23;;;;;;;1.63;0.90;;;22.40;99.90;;;;;;4928450;29;20476;-74
2022/08/29 15:00:15;;;;;;;2.17;1.27;;;22.50;99.90;;;;;;4921701;29;20582;-73
2022/08/29 15:03:03;;;;;;;2.03;1.00;;;22.40;99.90;;;;;;4920492;29;21087;-74
2022/08/29 15:05:52;;;;;;;0.90;0.90;;;22.40;99.90;;;;;;4919316;29;20484;-74
2022/08/29 15:08:42;;;;;;;2.07;1.00;;;22.60;99.90;;;;;;4924247;29;20480;-74
2022/08/29 15:11:32;;;;;;;1.77;1.00;;;22.70;99.90;;;;;;4924538;28;21135;-74
2022/08/29 15:14:20;;;;;;;1.47;1.03;;;22.80;99.90;;;;;;4916736;29;20560;-74
2022/08/29 15:17:08;;;;;;;1.00;0.80;;;22.90;99.90;;;;;;4926697;29;20488;-74
2022/08/29 15:19:58;;;;;;;1.40;0.83;;;22.90;99.90;;;;;;4922324;29;20595;-74
2022/08/29 15:23:06;;;;;;;1.20;1.10;;;22.90;99.90;;;;;;4923815;29;20451;-74
2022/08/29 15:25:57;;;;;;;2.43;1.20;;;22.80;99.90;;;;;;4913727;29;20501;-74
2022/08/29 15:28:47;;;;;;;3.07;1.07;;;22.70;99.90;;;;;;4922582;29;21197;-74
2022/08/29 15:31:35;;;;;;;1.17;1.07;;;22.60;99.90;;;;;;4914830;29;20982;-74
2022/08/29 15:34:24;;;;;;;1.03;1.03;;;22.40;99.90;;;;;;4924538;29;20456;-74
2022/08/29 15:37:15;;;;;;;1.37;1.20;;;22.30;99.90;;;;;;4925215;29;21014;-74
2022/08/29 15:40:05;;;;;;;1.93;1.17;;;22.20;99.90;;;;;;4922318;29;20534;-74
2022/08/29 15:42:59;;;;;;;1.07;1.07;;;22.10;99.90;;;;;;4926737;29;20456;-74
2022/08/29 15:45:50;;;;;;;1.43;1.03;;;22.10;99.90;;;;;;4927931;28;20486;-75
2022/08/29 15:48:44;;;;;;;3.67;1.60;;;22.10;99.90;;;;;;4926866;29;20464;-75
2022/08/29 15:51:33;;;;;;;1.30;1.20;;;22.00;99.90;;;;;;4925037;29;21063;-75
2022/08/29 15:54:22;;;;;;;1.30;1.20;;;22.00;99.90;;;;;;4915586;29;20604;-75
2022/08/29 15:57:11;;;;;;;1.20;1.03;;;21.80;99.90;;;;;;4928245;28;20472;-73
2022/08/29 15:59:59;;;;;;;1.20;0.97;;;21.80;99.90;;;;;;4924639;29;20648;-75
2022/08/29 16:02:48;;;;;;;1.93;1.27;;;21.80;99.90;;;;;;4928028;29;21138;-75
2022/08/29 16:05:39;;;;;;;1.87;0.93;;;21.70;99.90;;;;;;4925000;29;20507;-75
2022/08/29 16:08:27;;;;;;;1.67;1.30;;;21.60;99.90;;;;;;4924752;29;20520;-75
2022/08/29 16:11:17;;;;;;;1.50;1.33;;;21.60;99.90;;;;;;4916976;29;20518;-75
2022/08/29 16:14:05;;;;;;;1.53;1.40;;;21.50;99.90;;;;;;4922202;29;20456;-74
2022/08/29 16:17:14;;;;;;;1.70;1.30;;;21.50;99.90;;;;;;4922164;29;21029;-77